Time;durP1;ratioP1;P1;durP2;ratioP2;P2;SDS_P1;SDS_P2;PMS_P1;PMS_P2;Temp;Humidity;BMP_temperature;BMP_pressure;BME280_temperature;BME280_humidity;BME280_pressure;Samples;Min_cycle;Max_cycle;Signal;HPM_P1;HPM_P2
2022/01/20 00:01:47;;;;;;;3.58;1.63;;;18.60;57.50;;;;;;4977836;28;20312;-87
2022/01/20 00:04:35;;;;;;;3.50;1.98;;;18.60;57.50;;;;;;4990169;28;20192;-88
2022/01/20 00:07:28;;;;;;;5.63;2.05;;;18.60;57.70;;;;;;5010696;28;20219;-87
2022/01/20 00:26:17;;;;;;;5.70;2.10;;;18.60;57.70;;;;;;5089348;28;20196;-88
2022/01/20 00:29:01;;;;;;;2.83;1.80;;;18.60;57.70;;;;;;5058846;28;20173;-88
2022/01/20 00:31:43;;;;;;;4.30;1.95;;;18.60;57.80;;;;;;5068684;28;20216;-87
2022/01/20 00:34:19;;;;;;;2.90;1.55;;;18.60;57.60;;;;;;5013212;28;20182;-87
2022/01/20 00:39:55;;;;;;;3.50;2.00;;;18.60;57.60;;;;;;5029919;28;20178;-87
2022/01/20 00:42:30;;;;;;;3.80;1.88;;;18.50;57.50;;;;;;4972205;28;20184;-87
2022/01/20 00:45:11;;;;;;;6.65;2.20;;;18.50;57.70;;;;;;4969038;28;20188;-88
2022/01/20 00:47:40;;;;;;;3.97;1.92;;;18.60;57.60;;;;;;4967831;28;20240;-88
2022/01/20 00:50:15;;;;;;;4.40;2.00;;;18.60;57.60;;;;;;4964147;29;20185;-87
2022/01/20 00:52:46;;;;;;;6.55;2.08;;;18.50;57.40;;;;;;4939123;28;20191;-87
2022/01/20 00:55:23;;;;;;;3.95;1.90;;;18.50;57.70;;;;;;4984521;28;20211;-87
2022/01/20 00:57:50;;;;;;;3.47;1.98;;;18.50;57.70;;;;;;4984102;28;20248;-87
2022/01/20 01:00:26;;;;;;;4.05;1.65;;;18.50;57.60;;;;;;4984673;28;20252;-87
2022/01/20 01:02:56;;;;;;;6.20;1.80;;;18.50;57.90;;;;;;4984835;28;20301;-87
2022/01/20 01:05:22;;;;;;;4.97;1.90;;;18.50;58.00;;;;;;5001488;28;20263;-87
2022/01/20 01:07:51;;;;;;;4.85;2.33;;;18.50;58.00;;;;;;5010543;28;20281;-87
2022/01/20 01:10:27;;;;;;;2.80;1.65;;;18.40;57.90;;;;;;5024673;28;20182;-87
2022/01/20 01:13:03;;;;;;;3.58;1.83;;;18.50;57.70;;;;;;4981842;28;20192;-87
2022/01/20 01:15:53;;;;;;;4.00;1.85;;;18.40;57.70;;;;;;4937691;29;20185;-87
2022/01/20 01:21:26;;;;;;;;;;;;;;;;;;;;;
2022/01/20 01:24:00;;;;;;;4.47;1.60;;;18.50;57.80;;;;;;4929138;29;20292;-87
2022/01/20 01:26:28;;;;;;;2.50;2.00;;;18.40;58.00;;;;;;4909871;29;20221;-87
2022/01/20 01:28:59;;;;;;;3.75;1.58;;;18.40;58.00;;;;;;4917318;29;20189;-87
2022/01/20 01:31:38;;;;;;;3.63;2.00;;;18.40;58.00;;;;;;4944586;29;20198;-87
2022/01/20 01:34:09;;;;;;;3.03;1.52;;;18.40;57.90;;;;;;4948560;29;20182;-88
2022/01/20 01:37:03;;;;;;;4.97;1.80;;;18.40;58.20;;;;;;4917350;29;20190;-87
2022/01/20 01:39:30;;;;;;;3.17;1.75;;;18.30;58.20;;;;;;4935753;29;20196;-87
2022/01/20 01:42:03;;;;;;;3.10;1.58;;;18.30;58.40;;;;;;4978860;28;20185;-87
2022/01/20 01:44:32;;;;;;;4.05;1.70;;;18.30;58.20;;;;;;5018341;28;20207;-87
2022/01/20 01:47:04;;;;;;;2.97;1.73;;;18.30;58.20;;;;;;5020008;28;20250;-87
2022/01/20 01:49:33;;;;;;;4.82;2.05;;;18.20;58.20;;;;;;5005870;28;20242;-87
2022/01/20 01:52:07;;;;;;;5.57;2.03;;;18.30;58.20;;;;;;4989866;28;20187;-87
2022/01/20 01:54:38;;;;;;;3.22;2.00;;;18.30;58.30;;;;;;4986817;28;20226;-87
2022/01/20 01:57:09;;;;;;;3.53;1.85;;;18.30;58.30;;;;;;4987228;28;20192;-87
2022/01/20 01:59:39;;;;;;;2.85;1.70;;;18.20;58.10;;;;;;4985948;28;20196;-87
2022/01/20 02:02:08;;;;;;;2.40;1.80;;;18.30;58.40;;;;;;4983511;28;20322;-87
2022/01/20 02:04:36;;;;;;;3.20;1.98;;;18.30;58.40;;;;;;4966170;29;20194;-86
2022/01/20 02:07:28;;;;;;;4.18;2.03;;;18.30;58.10;;;;;;4928736;29;20587;-87
2022/01/20 02:18:48;;;;;;;4.20;1.80;;;18.30;58.90;;;;;;4911543;29;20187;-86
2022/01/20 02:21:14;;;;;;;3.80;1.73;;;18.20;58.00;;;;;;4873249;29;20225;-87
2022/01/20 02:23:47;;;;;;;3.83;1.65;;;18.40;58.20;;;;;;4877142;29;20184;-87
2022/01/20 02:26:17;;;;;;;1.98;1.48;;;18.30;58.10;;;;;;4854577;29;20225;-88
2022/01/20 02:28:59;;;;;;;4.28;1.80;;;18.30;58.30;;;;;;4869969;29;20189;-86
2022/01/20 02:31:26;;;;;;;4.00;1.98;;;18.20;58.90;;;;;;4874467;29;20196;-87
2022/01/20 02:34:06;;;;;;;3.05;1.70;;;18.20;58.20;;;;;;4895525;29;20183;-87
2022/01/20 02:36:46;;;;;;;4.07;1.65;;;18.20;58.20;;;;;;4910660;29;20233;-87
2022/01/20 02:46:46;;;;;;;3.53;1.73;;;18.20;58.10;;;;;;4851740;29;20204;-88
2022/01/20 02:50:11;;;;;;;;;;;;;;;;;;;;;
2022/01/20 03:01:21;;;;;;;3.47;1.75;;;18.20;58.40;;;;;;4707865;30;20208;-88
2022/01/20 03:30:09;;;;;;;2.20;1.50;;;18.10;58.30;;;;;;4648231;30;20212;-88
2022/01/20 03:33:29;;;;;;;4.32;1.65;;;18.20;58.30;;;;;;4659029;30;20288;-88
2022/01/20 03:36:32;;;;;;;2.03;1.30;;;18.10;58.30;;;;;;4690504;30;20195;-88
2022/01/20 03:39:29;;;;;;;4.82;1.70;;;18.10;58.30;;;;;;4721348;30;20201;-88
2022/01/20 03:42:57;;;;;;;;;;;;;;;;;;;;;
2022/01/20 03:46:11;;;;;;;4.30;1.50;;;18.10;58.20;;;;;;4804937;29;20292;-88
2022/01/20 03:53:35;;;;;;;2.75;1.65;;;18.10;58.30;;;;;;4824341;29;20271;-87
2022/01/20 03:56:23;;;;;;;2.33;1.70;;;18.10;58.30;;;;;;4818949;29;20190;-88
2022/01/20 03:59:44;;;;;;;;;;;;;;;;;;;;;
2022/01/20 04:03:22;;;;;;;3.22;1.70;;;18.10;58.40;;;;;;4833503;29;20217;-88
2022/01/20 04:06:27;;;;;;;;;;;;;;;;;;;;;
2022/01/20 04:13:09;;;;;;;6.53;1.90;;;18.10;58.30;;;;;;4807332;29;20207;-88
2022/01/20 04:20:04;;;;;;;;;;;;;;;;;;;;;
2022/01/20 04:23:17;;;;;;;;;;;;;;;;;;;;;
2022/01/20 04:26:21;;;;;;;2.65;1.65;;;18.00;58.10;;;;;;4763986;30;20231;-88
2022/01/20 04:30:02;;;;;;;2.55;1.63;;;18.10;58.10;;;;;;4737843;30;20253;-88
2022/01/20 04:33:30;;;;;;;;;;;;;;;;;;;;;
2022/01/20 04:36:52;;;;;;;;;;;;;;;;;;;;;
2022/01/20 04:39:53;;;;;;;3.92;1.83;;;18.10;58.50;;;;;;4736731;30;20222;-88
2022/01/20 04:43:00;;;;;;;;;;;;;;;;;;;;;
2022/01/20 05:00:01;;;;;;;3.33;1.50;;;18.10;58.20;;;;;;4794649;30;20213;-88
2022/01/20 05:06:39;;;;;;;1.90;1.35;;;18.10;58.30;;;;;;4844452;29;20173;-88
2022/01/20 05:14:04;;;;;;;;;;;;;;;;;;;;;
2022/01/20 05:17:23;;;;;;;2.40;1.50;;;18.00;58.20;;;;;;4726846;30;20217;-88
2022/01/20 05:20:56;;;;;;;;;;;;;;;;;;;;;
2022/01/20 05:31:35;;;;;;;;;;;;;;;;;;;;;
2022/01/20 05:38:22;;;;;;;2.25;1.40;;;18.30;57.00;;;;;;4769980;30;20185;-88
2022/01/20 05:45:23;;;;;;;1.42;1.33;;;18.30;56.70;;;;;;4737066;30;20298;-88
2022/01/20 05:49:03;;;;;;;1.92;1.33;;;18.30;56.70;;;;;;4713577;30;20225;-88
2022/01/20 05:52:18;;;;;;;;;;;;;;;;;;;;;
2022/01/20 06:34:05;;;;;;;;;;;;;;;;;;;;;
2022/01/20 06:40:30;;;;;;;1.85;1.08;;;18.50;55.30;;;;;;4733637;30;20254;-88
2022/01/20 06:43:06;;;;;;;0.90;0.85;;;18.50;54.80;;;;;;4658437;30;20261;-88
2022/01/20 06:46:48;;;;;;;1.50;1.10;;;18.50;54.50;;;;;;4630583;31;20203;-88
2022/01/20 06:49:08;;;;;;;1.40;1.30;;;18.50;55.20;;;;;;4635533;30;20212;-88
2022/01/20 06:51:50;;;;;;;1.73;1.10;;;18.50;55.00;;;;;;4678467;30;20203;-87
2022/01/20 06:54:44;;;;;;;2.38;1.60;;;18.50;55.10;;;;;;4692373;30;20208;-88
2022/01/20 06:57:52;;;;;;;1.98;1.27;;;18.50;55.20;;;;;;4664560;30;20226;-88
2022/01/20 07:07:39;;;;;;;1.73;1.13;;;18.60;54.70;;;;;;4668814;30;20224;-88
2022/01/20 07:10:34;;;;;;;1.73;1.00;;;18.60;55.50;;;;;;4656276;30;20256;-88
2022/01/20 07:12:59;;;;;;;2.70;1.30;;;18.60;55.10;;;;;;4644896;30;20241;-87
2022/01/20 07:15:27;;;;;;;2.03;1.23;;;18.60;55.60;;;;;;4703311;30;20189;-88
2022/01/20 07:18:50;;;;;;;1.05;0.90;;;18.50;55.10;;;;;;4757716;30;20192;-88
2022/01/20 07:21:36;;;;;;;1.65;1.05;;;18.60;55.10;;;;;;4798423;29;20208;-87
2022/01/20 07:24:14;;;;;;;2.28;1.13;;;18.50;54.40;;;;;;4781254;30;20199;-88
2022/01/20 07:26:56;;;;;;;2.35;1.30;;;18.60;54.60;;;;;;4798911;30;20716;-88
2022/01/20 07:29:29;;;;;;;1.88;1.25;;;18.60;54.30;;;;;;4745688;30;20220;-88
2022/01/20 07:32:16;;;;;;;2.08;1.50;;;18.60;54.70;;;;;;4697552;30;20205;-88
2022/01/20 07:35:15;;;;;;;;;;;;;;;;;;;;;
2022/01/20 07:38:42;;;;;;;1.55;1.40;;;18.60;54.60;;;;;;4694481;30;20207;-88
2022/01/20 07:41:36;;;;;;;1.20;1.10;;;18.60;54.40;;;;;;4754885;30;20227;-88
2022/01/20 07:44:31;;;;;;;1.05;0.88;;;18.60;54.50;;;;;;4735765;30;20192;-89
2022/01/20 07:47:02;;;;;;;1.92;1.02;;;18.60;54.40;;;;;;4799158;30;20329;-88
2022/01/20 07:50:02;;;;;;;;;;;;;;;;;;;;;
2022/01/20 07:52:36;;;;;;;1.02;0.80;;;18.60;54.50;;;;;;4719719;30;20228;-88
2022/01/20 07:55:53;;;;;;;1.33;1.10;;;18.50;54.00;;;;;;4738645;30;20249;-88
2022/01/20 07:58:48;;;;;;;1.20;1.10;;;18.60;54.60;;;;;;4774824;30;20251;-88
2022/01/20 08:01:44;;;;;;;0.93;0.80;;;18.60;54.50;;;;;;4817918;29;20191;-88
2022/01/20 08:04:47;;;;;;;1.27;0.82;;;18.50;54.80;;;;;;4784196;30;20188;-88
2022/01/20 08:07:53;;;;;;;1.10;0.90;;;18.60;54.40;;;;;;4784344;30;20222;-88
2022/01/20 08:10:34;;;;;;;1.45;1.27;;;18.60;54.40;;;;;;4794963;30;20226;-88
2022/01/20 08:13:09;;;;;;;1.45;1.10;;;18.50;54.40;;;;;;4731531;30;20198;-88
2022/01/20 08:15:36;;;;;;;1.40;1.00;;;18.60;54.40;;;;;;4729165;30;20224;-88
2022/01/20 08:18:08;;;;;;;1.60;1.17;;;18.60;54.10;;;;;;4746520;30;20197;-88
2022/01/20 08:20:43;;;;;;;1.10;1.00;;;18.60;54.30;;;;;;4768781;30;20202;-88
2022/01/20 08:23:24;;;;;;;2.42;1.33;;;18.60;54.30;;;;;;4799651;30;20186;-87
2022/01/20 08:25:59;;;;;;;2.13;1.15;;;18.60;54.10;;;;;;4794805;29;20192;-88
2022/01/20 08:28:30;;;;;;;1.00;0.80;;;18.60;52.80;;;;;;4785344;30;20215;-88
2022/01/20 08:31:00;;;;;;;1.40;0.88;;;18.60;53.00;;;;;;4790778;29;20197;-88
2022/01/20 08:33:26;;;;;;;2.40;1.00;;;18.60;53.00;;;;;;4839326;29;20186;-88
2022/01/20 08:35:56;;;;;;;1.80;1.08;;;18.60;52.40;;;;;;4870390;29;20192;-88
2022/01/20 08:38:23;;;;;;;0.98;0.80;;;18.70;53.50;;;;;;4961344;28;20192;-88
2022/01/20 08:40:54;;;;;;;1.30;1.20;;;18.60;52.60;;;;;;4963260;28;20262;-87
2022/01/20 08:43:20;;;;;;;1.20;1.10;;;18.70;52.80;;;;;;4994298;28;20166;-88
2022/01/20 08:45:55;;;;;;;1.20;1.00;;;18.80;53.60;;;;;;4994381;28;20184;-88
2022/01/20 08:48:23;;;;;;;1.63;1.10;;;18.60;53.70;;;;;;4992538;28;20255;-89
2022/01/20 08:50:50;;;;;;;1.30;0.77;;;18.60;53.90;;;;;;4992848;28;20224;-89
2022/01/20 08:53:20;;;;;;;1.77;1.05;;;18.60;52.70;;;;;;5015866;28;20184;-89
2022/01/20 08:55:53;;;;;;;2.72;1.10;;;18.70;53.60;;;;;;5053284;28;20265;-89
2022/01/20 08:58:23;;;;;;;1.38;0.82;;;18.70;53.10;;;;;;4993673;28;20591;-89
2022/01/20 09:01:03;;;;;;;1.08;0.98;;;18.70;53.20;;;;;;4978040;28;20292;-88
2022/01/20 09:03:32;;;;;;;2.63;1.02;;;18.70;53.10;;;;;;5005505;28;20658;-88
2022/01/20 09:05:58;;;;;;;1.83;1.15;;;18.70;53.00;;;;;;4986369;28;20168;-89
2022/01/20 09:08:26;;;;;;;2.80;1.00;;;18.70;53.40;;;;;;4970976;28;20730;-88
2022/01/20 09:10:55;;;;;;;3.80;1.00;;;18.70;52.70;;;;;;4985000;28;20258;-88
2022/01/20 09:16:05;;;;;;;1.30;0.90;;;18.70;53.40;;;;;;4987873;28;20153;-88
2022/01/20 09:18:32;;;;;;;3.55;1.23;;;18.60;54.10;;;;;;4987209;28;20176;-87
2022/01/20 09:20:58;;;;;;;1.70;1.10;;;18.60;53.50;;;;;;4988898;28;20184;-88
2022/01/20 09:23:36;;;;;;;1.55;0.90;;;18.70;53.70;;;;;;4985622;28;20180;-89
2022/01/20 09:26:07;;;;;;;1.02;0.95;;;18.70;53.50;;;;;;4985585;28;20682;-88
2022/01/20 09:28:35;;;;;;;1.38;1.00;;;18.70;52.70;;;;;;4994508;28;20189;-88
2022/01/20 09:31:08;;;;;;;1.23;0.88;;;18.80;53.20;;;;;;5048707;28;20180;-88
2022/01/20 09:33:47;;;;;;;1.48;0.95;;;18.70;53.00;;;;;;5069501;28;20181;-89
2022/01/20 09:36:22;;;;;;;1.58;1.10;;;18.70;52.40;;;;;;5087745;28;20565;-88
2022/01/20 09:38:52;;;;;;;1.65;1.00;;;18.70;53.00;;;;;;5046285;28;20182;-89
2022/01/20 09:41:59;;;;;;;2.17;1.00;;;18.70;52.60;;;;;;5013982;28;20293;-88
2022/01/20 09:44:28;;;;;;;1.38;1.08;;;18.70;53.30;;;;;;5046010;28;20640;-89
2022/01/20 09:46:55;;;;;;;1.42;1.00;;;18.70;53.00;;;;;;5026265;28;20210;-88
2022/01/20 09:49:22;;;;;;;1.75;1.00;;;18.70;52.60;;;;;;5009351;28;20183;-88
2022/01/20 09:51:48;;;;;;;0.95;0.80;;;18.70;52.60;;;;;;5010504;28;20178;-88
2022/01/20 09:54:17;;;;;;;1.52;1.00;;;18.80;53.70;;;;;;5014446;28;20181;-88
2022/01/20 09:56:49;;;;;;;0.88;0.88;;;18.70;52.90;;;;;;5030511;28;20257;-88
2022/01/20 09:59:21;;;;;;;1.05;0.95;;;18.70;53.00;;;;;;5030421;28;20193;-88
2022/01/20 10:01:56;;;;;;;1.75;1.08;;;18.70;53.20;;;;;;5030659;28;20284;-88
2022/01/20 10:04:29;;;;;;;1.20;1.00;;;18.70;52.90;;;;;;5052071;28;20232;-88
2022/01/20 10:07:01;;;;;;;1.83;1.13;;;18.80;53.40;;;;;;5069062;28;20237;-89
2022/01/20 10:09:29;;;;;;;1.33;1.00;;;18.70;52.90;;;;;;5070011;28;20173;-88
2022/01/20 10:11:58;;;;;;;1.60;0.95;;;18.70;53.30;;;;;;5069634;28;20208;-88
2022/01/20 10:14:25;;;;;;;1.10;1.00;;;18.70;53.30;;;;;;5068106;28;20191;-88
2022/01/20 10:16:52;;;;;;;0.80;0.80;;;18.70;52.70;;;;;;5070487;28;20244;-88
2022/01/20 10:19:23;;;;;;;0.80;0.80;;;18.70;52.80;;;;;;5069309;28;20168;-88
2022/01/20 10:22:05;;;;;;;2.03;0.98;;;18.80;52.90;;;;;;5087195;28;20157;-89
2022/01/20 10:24:30;;;;;;;1.25;0.85;;;18.70;53.10;;;;;;5072803;28;20188;-88
2022/01/20 10:27:31;;;;;;;;;;;;;;;;;;;;;
2022/01/20 10:29:59;;;;;;;1.10;1.00;;;18.80;51.80;;;;;;5069871;28;20271;-89
2022/01/20 10:32:42;;;;;;;1.25;0.90;;;18.70;52.80;;;;;;5073191;28;20156;-89
2022/01/20 10:35:22;;;;;;;1.15;0.82;;;18.80;51.60;;;;;;5106599;28;20176;-89
2022/01/20 10:38:00;;;;;;;1.20;1.00;;;18.80;52.40;;;;;;5047110;28;20344;-88
2022/01/20 10:40:26;;;;;;;1.13;1.00;;;18.80;51.90;;;;;;5048643;28;20177;-88
2022/01/20 10:42:53;;;;;;;1.20;0.80;;;18.80;51.90;;;;;;5016063;28;20182;-90
2022/01/20 10:45:23;;;;;;;1.20;0.80;;;18.90;51.00;;;;;;5016031;28;20190;-88
2022/01/20 10:47:58;;;;;;;1.20;0.90;;;18.90;51.60;;;;;;5015788;28;20213;-88
2022/01/20 10:50:29;;;;;;;2.05;0.80;;;18.90;52.20;;;;;;5009066;28;20218;-89
2022/01/20 10:53:21;;;;;;;1.52;0.80;;;18.90;51.30;;;;;;4993659;28;20179;-88
2022/01/20 10:55:48;;;;;;;2.03;0.82;;;18.90;52.10;;;;;;4953956;29;20185;-89
2022/01/20 10:58:23;;;;;;;0.98;0.80;;;18.80;51.70;;;;;;4950539;29;20181;-88
2022/01/20 11:00:52;;;;;;;2.95;0.80;;;18.90;50.80;;;;;;4951178;29;20192;-88
2022/01/20 11:03:18;;;;;;;1.20;0.90;;;19.00;50.70;;;;;;4967422;29;20547;-88
2022/01/20 11:05:48;;;;;;;0.90;0.90;;;19.00;51.70;;;;;;4966471;29;20191;-88
2022/01/20 11:08:21;;;;;;;1.15;1.00;;;19.00;51.00;;;;;;4964554;28;20283;-88
2022/01/20 11:11:02;;;;;;;1.77;1.15;;;18.90;51.20;;;;;;4989028;28;20191;-88
2022/01/20 11:13:27;;;;;;;0.70;0.70;;;19.00;52.00;;;;;;4967954;29;20181;-87
2022/01/20 11:16:13;;;;;;;0.80;0.80;;;18.90;51.70;;;;;;4935498;29;20196;-87
2022/01/20 11:19:05;;;;;;;1.63;0.98;;;18.90;52.00;;;;;;4933412;29;20161;-88
2022/01/20 11:21:31;;;;;;;1.00;0.90;;;18.90;51.10;;;;;;4927550;28;20185;-89
2022/01/20 11:24:06;;;;;;;2.70;1.00;;;19.00;52.50;;;;;;4977613;28;20197;-89
2022/01/20 11:26:44;;;;;;;;;;;;;;;;;;;;;
2022/01/20 11:29:13;;;;;;;1.17;1.08;;;18.90;51.70;;;;;;5035974;28;20654;-88
2022/01/20 11:31:42;;;;;;;1.35;0.95;;;18.90;52.30;;;;;;5034393;28;20204;-89
2022/01/20 11:34:52;;;;;;;0.90;0.82;;;18.90;52.30;;;;;;5024781;28;20178;-89
2022/01/20 11:41:04;;;;;;;1.20;0.90;;;18.90;52.10;;;;;;4961425;29;20179;-89
2022/01/20 11:44:00;;;;;;;1.00;0.88;;;18.90;52.40;;;;;;4945216;28;20188;-90
2022/01/20 11:50:44;;;;;;;1.77;0.80;;;18.90;50.90;;;;;;4925922;29;20261;-88
2022/01/20 11:56:53;;;;;;;1.77;0.80;;;19.00;52.20;;;;;;4755411;30;20186;-89
2022/01/20 12:35:44;;;;;;;;;;;;;;;;;;;;;
2022/01/20 12:50:10;;;;;;;;;;;;;;;;;;;;;
2022/01/20 12:57:07;;;;;;;;;;;;;;;;;;;;;
2022/01/20 12:59:57;;;;;;;;;;;;;;;;;;;;;
2022/01/20 13:02:23;;;;;;;1.42;0.80;;;19.20;50.50;;;;;;5828960;24;20189;-87
2022/01/20 13:05:40;;;;;;;1.67;0.70;;;19.10;50.70;;;;;;5836218;24;20214;-87
2022/01/20 13:07:55;;;;;;;1.02;0.80;;;19.20;51.00;;;;;;5856853;24;20188;-88
2022/01/20 13:10:33;;;;;;;0.80;0.65;;;19.00;50.50;;;;;;5836505;24;20155;-89
2022/01/20 13:13:05;;;;;;;0.80;0.70;;;19.20;50.20;;;;;;5857434;24;20626;-89
2022/01/20 13:15:32;;;;;;;0.65;0.60;;;19.20;50.80;;;;;;5836461;24;20162;-89
2022/01/20 13:18:07;;;;;;;0.70;0.70;;;19.10;50.20;;;;;;5836015;24;20170;-88
2022/01/20 13:20:40;;;;;;;1.13;0.80;;;19.10;51.20;;;;;;5858841;24;20162;-87
2022/01/20 13:26:04;;;;;;;0.88;0.68;;;19.20;51.40;;;;;;5918623;24;20192;-87
2022/01/20 13:28:31;;;;;;;0.75;0.70;;;19.10;51.30;;;;;;5885483;24;20177;-88
2022/01/20 13:31:15;;;;;;;3.25;1.23;;;19.20;51.00;;;;;;6012014;23;20165;-88
2022/01/20 13:33:41;;;;;;;2.35;0.90;;;19.20;50.90;;;;;;6117013;23;20209;-87
2022/01/20 13:36:07;;;;;;;0.80;0.80;;;19.20;51.60;;;;;;6111417;23;20194;-88
2022/01/20 13:38:39;;;;;;;3.85;1.10;;;19.20;51.00;;;;;;6113160;23;20375;-87
2022/01/20 13:41:08;;;;;;;2.00;0.70;;;19.20;51.80;;;;;;6111568;23;20174;-87
2022/01/20 13:46:28;;;;;;;3.05;0.80;;;19.20;52.00;;;;;;6118150;23;20163;-87
2022/01/20 13:49:05;;;;;;;2.55;1.17;;;19.20;51.90;;;;;;6092963;23;20147;-87
2022/01/20 13:51:38;;;;;;;2.13;1.10;;;19.20;52.00;;;;;;6113911;23;20174;-86
2022/01/20 13:54:11;;;;;;;6.38;1.00;;;19.30;51.60;;;;;;6112001;23;20334;-86
2022/01/20 13:56:36;;;;;;;3.28;1.50;;;19.20;50.70;;;;;;6114087;23;20283;-86
2022/01/20 13:59:10;;;;;;;5.68;0.90;;;19.20;50.10;;;;;;6089755;23;20152;-86
2022/01/20 14:01:44;;;;;;;8.27;1.10;;;19.30;50.00;;;;;;6114401;23;20152;-86
2022/01/20 14:04:14;;;;;;;2.38;1.10;;;19.30;50.80;;;;;;6088177;23;20142;-85
2022/01/20 14:06:41;;;;;;;5.43;1.00;;;19.20;50.70;;;;;;6166417;23;20150;-86
2022/01/20 14:09:20;;;;;;;6.07;1.10;;;19.20;50.80;;;;;;6175874;23;20309;-86
2022/01/20 14:11:47;;;;;;;3.80;1.20;;;19.30;51.20;;;;;;6173932;23;20178;-85
2022/01/20 14:14:15;;;;;;;3.50;1.00;;;19.20;50.50;;;;;;6200819;23;20127;-86
2022/01/20 14:16:43;;;;;;;5.90;1.45;;;19.30;52.00;;;;;;6147969;23;20206;-86
2022/01/20 14:19:11;;;;;;;10.50;1.50;;;19.30;51.40;;;;;;6147294;23;20173;-85
2022/01/20 14:21:40;;;;;;;3.88;1.10;;;19.20;51.80;;;;;;6150050;23;20146;-86
2022/01/20 14:24:09;;;;;;;5.30;0.90;;;19.20;52.80;;;;;;6149971;23;20201;-87
2022/01/20 14:26:42;;;;;;;4.55;1.08;;;19.20;51.70;;;;;;6173420;23;20154;-86
2022/01/20 14:29:08;;;;;;;4.25;1.00;;;19.20;51.70;;;;;;6152737;23;20146;-87
2022/01/20 14:31:36;;;;;;;9.27;1.27;;;19.20;52.00;;;;;;6147252;23;20245;-86
2022/01/20 14:34:09;;;;;;;4.32;1.02;;;19.20;52.20;;;;;;6174052;23;20130;-85
2022/01/20 14:36:40;;;;;;;4.00;1.08;;;19.20;52.40;;;;;;6175049;23;20186;-86
2022/01/20 14:39:35;;;;;;;4.90;0.95;;;19.20;52.30;;;;;;6174313;23;20220;-86
2022/01/20 14:45:30;;;;;;;4.13;1.00;;;19.20;53.20;;;;;;6026734;23;20158;-87
2022/01/20 14:48:02;;;;;;;2.75;0.77;;;19.20;51.80;;;;;;6105756;23;20157;-87
2022/01/20 14:50:41;;;;;;;7.00;1.13;;;19.20;52.50;;;;;;6072959;23;20533;-87
2022/01/20 14:54:17;;;;;;;1.92;0.90;;;19.20;51.90;;;;;;6014395;23;20224;-88
2022/01/20 14:56:37;;;;;;;3.28;0.80;;;19.20;52.50;;;;;;5998420;23;20171;-89
2022/01/20 14:59:12;;;;;;;5.35;1.20;;;19.20;52.00;;;;;;5969274;24;20559;-87
2022/01/20 15:01:49;;;;;;;1.58;0.73;;;19.20;52.10;;;;;;5997991;23;20240;-86
2022/01/20 15:04:15;;;;;;;3.10;0.75;;;19.20;51.50;;;;;;6001379;23;20159;-87
2022/01/20 15:06:54;;;;;;;2.90;0.73;;;19.20;51.20;;;;;;6001126;23;20274;-87
2022/01/20 15:09:57;;;;;;;4.47;1.30;;;19.30;51.20;;;;;;6024146;23;20162;-89
2022/01/20 15:12:39;;;;;;;4.05;0.90;;;19.30;51.30;;;;;;5984786;23;20177;-86
2022/01/20 15:15:05;;;;;;;6.32;1.23;;;19.30;51.80;;;;;;5966451;24;20155;-85
2022/01/20 15:17:36;;;;;;;6.03;1.05;;;19.20;52.70;;;;;;5943612;24;20638;-85
2022/01/20 15:20:02;;;;;;;4.90;0.90;;;19.20;52.10;;;;;;5987708;23;20155;-86
2022/01/20 15:22:28;;;;;;;4.85;1.10;;;19.20;52.30;;;;;;5953902;23;20190;-86
2022/01/20 15:24:56;;;;;;;0.80;0.70;;;19.20;52.00;;;;;;5967884;23;20163;-85
2022/01/20 15:27:21;;;;;;;4.82;0.82;;;19.20;51.10;;;;;;5991626;23;20159;-84
2022/01/20 15:29:47;;;;;;;3.20;0.88;;;19.30;51.50;;;;;;6014420;23;20155;-86
2022/01/20 15:32:13;;;;;;;4.90;1.08;;;19.30;52.30;;;;;;6113335;23;20179;-87
2022/01/20 15:34:39;;;;;;;2.65;0.98;;;19.30;52.40;;;;;;6113518;23;20143;-86
2022/01/20 15:37:09;;;;;;;2.50;0.93;;;19.20;51.90;;;;;;6137485;23;20194;-86
2022/01/20 15:39:47;;;;;;;4.03;0.90;;;19.20;52.10;;;;;;6142183;23;20154;-86
2022/01/20 15:42:14;;;;;;;1.00;0.77;;;19.20;52.40;;;;;;6080259;23;20514;-87
2022/01/20 15:44:40;;;;;;;3.65;0.80;;;19.20;51.60;;;;;;6081005;23;20153;-87
2022/01/20 15:47:06;;;;;;;1.83;1.08;;;19.30;50.40;;;;;;6082331;23;20163;-87
2022/01/20 15:49:35;;;;;;;1.50;0.90;;;19.30;50.70;;;;;;6055043;23;20232;-86
2022/01/20 15:52:08;;;;;;;3.80;1.00;;;19.30;50.80;;;;;;6100217;23;20215;-87
2022/01/20 15:54:34;;;;;;;3.28;0.98;;;19.20;52.00;;;;;;6140970;23;20136;-87
2022/01/20 15:56:59;;;;;;;3.00;0.85;;;19.20;51.30;;;;;;6115198;23;20190;-87
2022/01/20 15:59:28;;;;;;;2.92;0.75;;;19.20;51.10;;;;;;6116485;23;20155;-88
2022/01/20 16:01:57;;;;;;;3.25;1.10;;;19.20;52.60;;;;;;6122333;23;20255;-88
2022/01/20 16:04:29;;;;;;;4.25;0.90;;;19.20;52.20;;;;;;6117633;23;20234;-86
2022/01/20 16:06:55;;;;;;;1.55;0.85;;;19.20;52.20;;;;;;6142783;23;20155;-89
2022/01/20 16:09:27;;;;;;;6.18;1.13;;;19.20;52.20;;;;;;6117931;23;20155;-87
2022/01/20 16:11:57;;;;;;;3.40;0.90;;;19.20;52.10;;;;;;6117606;23;20206;-88
2022/01/20 16:14:27;;;;;;;4.53;0.90;;;19.20;52.00;;;;;;6119651;23;20166;-88
2022/01/20 16:17:01;;;;;;;6.28;1.15;;;19.20;52.00;;;;;;6117989;23;20175;-86
2022/01/20 16:19:33;;;;;;;2.08;0.80;;;19.20;51.90;;;;;;6081807;23;20335;-87
2022/01/20 16:22:16;;;;;;;3.30;1.00;;;19.20;51.20;;;;;;6033175;23;20196;-88
2022/01/20 16:24:49;;;;;;;3.75;0.90;;;19.20;52.30;;;;;;6022088;23;20216;-87
2022/01/20 16:27:20;;;;;;;2.55;0.95;;;19.20;52.20;;;;;;6023056;23;20151;-89
2022/01/20 16:29:45;;;;;;;3.75;1.13;;;19.20;52.00;;;;;;6000865;23;20158;-88
2022/01/20 16:32:14;;;;;;;3.42;1.05;;;19.20;52.60;;;;;;5971853;24;20175;-86
2022/01/20 16:34:40;;;;;;;6.00;1.10;;;19.20;52.00;;;;;;5962431;24;20160;-86
2022/01/20 16:37:12;;;;;;;8.20;0.98;;;19.20;52.10;;;;;;5944414;24;20155;-89
2022/01/20 16:39:41;;;;;;;5.10;1.00;;;19.20;52.80;;;;;;5916172;24;20153;-88
2022/01/20 16:42:11;;;;;;;2.88;1.00;;;19.20;52.70;;;;;;5918807;24;20172;-88
2022/01/20 16:44:37;;;;;;;7.70;1.23;;;19.30;52.10;;;;;;5939527;24;20189;-87
2022/01/20 16:47:05;;;;;;;5.63;1.20;;;19.30;51.70;;;;;;5942058;24;20159;-87
2022/01/20 16:49:34;;;;;;;5.38;1.17;;;19.30;52.80;;;;;;5912588;24;20202;-86
2022/01/20 16:52:04;;;;;;;4.47;1.23;;;19.20;52.60;;;;;;5902314;24;20200;-86
2022/01/20 16:54:33;;;;;;;3.90;0.90;;;19.30;52.90;;;;;;5880065;24;20182;-87
2022/01/20 16:56:59;;;;;;;7.22;1.27;;;19.30;52.50;;;;;;5935162;24;20627;-86
2022/01/20 16:59:29;;;;;;;3.42;0.90;;;19.20;52.70;;;;;;5939766;24;20228;-88
2022/01/20 17:01:59;;;;;;;6.22;1.25;;;19.40;51.30;;;;;;5939109;24;20153;-86
2022/01/20 17:04:35;;;;;;;5.47;1.20;;;19.40;52.10;;;;;;6022306;23;20165;-88
2022/01/20 17:07:19;;;;;;;6.32;1.08;;;19.40;51.90;;;;;;6034402;23;20160;-87
2022/01/20 17:09:58;;;;;;;4.70;1.38;;;19.30;51.00;;;;;;6052674;23;20242;-88
2022/01/20 17:12:27;;;;;;;5.90;1.38;;;19.30;51.60;;;;;;5998671;23;20192;-87
2022/01/20 17:15:03;;;;;;;5.03;1.25;;;19.40;51.40;;;;;;5932413;23;20188;-87
2022/01/20 17:17:33;;;;;;;7.53;1.15;;;19.40;50.90;;;;;;5975986;23;20155;-87
2022/01/20 17:20:12;;;;;;;4.97;1.20;;;19.40;51.60;;;;;;5973216;23;20519;-88
2022/01/20 17:22:49;;;;;;;9.88;1.73;;;19.40;50.40;;;;;;5971704;24;20638;-90
2022/01/20 17:25:32;;;;;;;4.53;1.45;;;19.40;50.70;;;;;;5972258;24;20159;-87
2022/01/20 17:27:59;;;;;;;4.47;1.20;;;19.30;51.60;;;;;;5973705;24;20155;-86
2022/01/20 17:33:43;;;;;;;6.93;1.40;;;19.30;51.50;;;;;;5882312;24;20303;-87
2022/01/20 17:36:12;;;;;;;6.78;1.30;;;19.30;52.40;;;;;;5837236;24;20207;-87
2022/01/20 17:38:56;;;;;;;5.50;1.50;;;19.30;52.60;;;;;;5851548;24;20163;-88
2022/01/20 17:42:14;;;;;;;;;;;;;;;;;;;;;
2022/01/20 17:45:05;;;;;;;7.75;1.42;;;19.40;52.30;;;;;;5887059;24;20622;-88
2022/01/20 17:47:35;;;;;;;14.63;1.48;;;19.40;52.50;;;;;;5888774;24;20222;-88
2022/01/20 17:53:58;;;;;;;10.20;1.63;;;19.30;53.20;;;;;;5804525;24;20195;-88
2022/01/20 17:56:24;;;;;;;13.88;1.70;;;19.40;52.60;;;;;;5807088;24;20159;-86
2022/01/20 17:58:56;;;;;;;7.80;1.60;;;19.40;53.00;;;;;;5826840;24;20258;-86
2022/01/20 18:01:23;;;;;;;8.82;1.70;;;19.30;52.60;;;;;;5803125;24;20558;-86
2022/01/20 18:03:48;;;;;;;4.75;1.45;;;19.40;52.10;;;;;;5833773;24;20178;-86
2022/01/20 18:06:14;;;;;;;10.05;1.83;;;19.40;53.40;;;;;;5831667;24;20581;-86
2022/01/20 18:08:49;;;;;;;6.03;1.30;;;19.40;52.50;;;;;;5850356;24;20186;-87
2022/01/20 18:11:26;;;;;;;;;;;;;;;;;;;;;
2022/01/20 18:14:01;;;;;;;4.15;1.38;;;19.50;53.10;;;;;;5857029;24;20169;-87
2022/01/20 18:17:28;;;;;;;3.05;0.85;;;19.50;53.10;;;;;;5909262;24;20181;-89
2022/01/20 18:20:33;;;;;;;6.70;1.80;;;19.50;52.90;;;;;;5852843;24;20173;-89
2022/01/20 18:22:59;;;;;;;14.10;2.15;;;19.50;53.30;;;;;;5772183;24;20165;-87
2022/01/20 18:25:28;;;;;;;17.17;2.00;;;19.50;53.30;;;;;;5745563;24;20244;-88
2022/01/20 18:28:39;;;;;;;12.88;2.00;;;19.50;53.30;;;;;;5747683;24;20241;-88
2022/01/20 18:31:48;;;;;;;8.80;1.63;;;19.40;53.90;;;;;;5731025;24;20172;-88
2022/01/20 18:34:47;;;;;;;9.57;1.70;;;19.40;53.90;;;;;;5778238;24;20168;-88